sensor_id;sensor_type;location;lat;lon;timestamp;pressure;altitude;pressure_sealevel;temperature;humidity
34921;BME280;21128;50.016;20.002;2024-01-25T00:00:21;98529.46;;;6.43;100.00
34921;BME280;21128;50.016;20.002;2024-01-25T00:03:07;98543.47;;;6.42;100.00
34921;BME280;21128;50.016;20.002;2024-01-25T00:05:34;98546.73;;;6.42;100.00
34921;BME280;21128;50.016;20.002;2024-01-25T00:08:01;98554.09;;;6.46;100.00
34921;BME280;21128;50.016;20.002;2024-01-25T00:10:28;98540.61;;;6.54;100.00
34921;BME280;21128;50.016;20.002;2024-01-25T00:12:54;98547.30;;;6.59;100.00
34921;BME280;21128;50.016;20.002;2024-01-25T00:15:21;98541.84;;;6.64;100.00
34921;BME280;21128;50.016;20.002;2024-01-25T00:17:48;98549.08;;;6.67;100.00
34921;BME280;21128;50.016;20.002;2024-01-25T00:20:14;98553.60;;;6.69;100.00
34921;BME280;21128;50.016;20.002;2024-01-25T00:22:41;98557.50;;;6.71;100.00
34921;BME280;21128;50.016;20.002;2024-01-25T00:25:08;98565.94;;;6.70;100.00
34921;BME280;21128;50.016;20.002;2024-01-25T00:27:34;98573.30;;;6.67;100.00
34921;BME280;21128;50.016;20.002;2024-01-25T00:30:01;98570.10;;;6.64;100.00
34921;BME280;21128;50.016;20.002;2024-01-25T00:32:28;98569.30;;;6.61;100.00
34921;BME280;21128;50.016;20.002;2024-01-25T00:34:55;98574.48;;;6.59;100.00
34921;BME280;21128;50.016;20.002;2024-01-25T00:37:22;98581.02;;;6.58;100.00
34921;BME280;21128;50.016;20.002;2024-01-25T00:39:49;98576.75;;;6.57;100.00
34921;BME280;21128;50.016;20.002;2024-01-25T00:42:21;98571.15;;;6.57;100.00
34921;BME280;21128;50.016;20.002;2024-01-25T00:44:48;98566.39;;;6.56;100.00
34921;BME280;21128;50.016;20.002;2024-01-25T00:47:15;98564.66;;;6.58;100.00
34921;BME280;21128;50.016;20.002;2024-01-25T00:49:42;98568.38;;;6.65;100.00
34921;BME280;21128;50.016;20.002;2024-01-25T00:52:09;98554.08;;;6.74;100.00
34921;BME280;21128;50.016;20.002;2024-01-25T00:54:36;98562.73;;;6.82;100.00
34921;BME280;21128;50.016;20.002;2024-01-25T00:57:03;98564.46;;;6.86;100.00
34921;BME280;21128;50.016;20.002;2024-01-25T00:59:31;98568.29;;;6.88;100.00
34921;BME280;21128;50.016;20.002;2024-01-25T01:01:58;98569.23;;;6.93;100.00
34921;BME280;21128;50.016;20.002;2024-01-25T01:04:26;98566.76;;;6.96;99.91
34921;BME280;21128;50.016;20.002;2024-01-25T01:06:53;98560.34;;;6.98;100.00
34921;BME280;21128;50.016;20.002;2024-01-25T01:09:20;98560.89;;;6.97;99.99
34921;BME280;21128;50.016;20.002;2024-01-25T01:11:46;98555.57;;;6.96;100.00
34921;BME280;21128;50.016;20.002;2024-01-25T01:17:50;98547.52;;;7.01;99.66
34921;BME280;21128;50.016;20.002;2024-01-25T01:20:16;98550.99;;;7.01;99.80
34921;BME280;21128;50.016;20.002;2024-01-25T01:22:43;98554.75;;;6.98;99.71
34921;BME280;21128;50.016;20.002;2024-01-25T01:25:10;98565.02;;;7.00;99.69
34921;BME280;21128;50.016;20.002;2024-01-25T01:27:37;98551.05;;;7.01;99.47
34921;BME280;21128;50.016;20.002;2024-01-25T01:30:04;98552.66;;;7.00;99.46
34921;BME280;21128;50.016;20.002;2024-01-25T01:32:31;98552.62;;;7.00;99.34
34921;BME280;21128;50.016;20.002;2024-01-25T01:34:57;98537.61;;;7.01;99.19
34921;BME280;21128;50.016;20.002;2024-01-25T01:37:24;98540.98;;;7.02;98.43
34921;BME280;21128;50.016;20.002;2024-01-25T01:39:51;98532.55;;;7.03;98.08
34921;BME280;21128;50.016;20.002;2024-01-25T01:42:19;98544.15;;;7.03;98.45
34921;BME280;21128;50.016;20.002;2024-01-25T01:44:45;98547.79;;;7.04;97.45
34921;BME280;21128;50.016;20.002;2024-01-25T01:47:12;98546.41;;;7.06;97.83
34921;BME280;21128;50.016;20.002;2024-01-25T01:49:39;98556.52;;;7.06;97.46
34921;BME280;21128;50.016;20.002;2024-01-25T01:52:06;98548.03;;;7.05;97.47
34921;BME280;21128;50.016;20.002;2024-01-25T01:54:34;98547.84;;;7.03;97.98
34921;BME280;21128;50.016;20.002;2024-01-25T01:57:01;98551.08;;;7.00;97.94
34921;BME280;21128;50.016;20.002;2024-01-25T01:59:29;98563.15;;;6.95;98.51
34921;BME280;21128;50.016;20.002;2024-01-25T02:01:57;98549.61;;;6.93;98.91
34921;BME280;21128;50.016;20.002;2024-01-25T02:04:23;98561.76;;;6.89;98.51
34921;BME280;21128;50.016;20.002;2024-01-25T02:06:50;98539.17;;;6.88;98.22
34921;BME280;21128;50.016;20.002;2024-01-25T02:09:17;98541.61;;;6.88;97.77
34921;BME280;21128;50.016;20.002;2024-01-25T02:11:43;98537.72;;;6.89;97.86
34921;BME280;21128;50.016;20.002;2024-01-25T02:14:10;98543.30;;;6.89;97.59
34921;BME280;21128;50.016;20.002;2024-01-25T02:16:38;98543.68;;;6.88;97.39
34921;BME280;21128;50.016;20.002;2024-01-25T02:19:05;98547.17;;;6.88;97.38
34921;BME280;21128;50.016;20.002;2024-01-25T02:21:31;98545.35;;;6.87;97.35
34921;BME280;21128;50.016;20.002;2024-01-25T02:23:58;98546.06;;;6.85;97.30
34921;BME280;21128;50.016;20.002;2024-01-25T02:26:25;98544.98;;;6.83;97.27
34921;BME280;21128;50.016;20.002;2024-01-25T02:28:51;98546.74;;;6.81;97.47
34921;BME280;21128;50.016;20.002;2024-01-25T02:31:18;98562.59;;;6.79;97.95
34921;BME280;21128;50.016;20.002;2024-01-25T02:33:45;98544.89;;;6.76;97.98
34921;BME280;21128;50.016;20.002;2024-01-25T02:36:11;98533.54;;;6.72;99.06
34921;BME280;21128;50.016;20.002;2024-01-25T02:38:38;98531.58;;;6.68;99.08
34921;BME280;21128;50.016;20.002;2024-01-25T02:41:05;98530.98;;;6.65;98.98
34921;BME280;21128;50.016;20.002;2024-01-25T02:43:31;98533.55;;;6.63;99.07
34921;BME280;21128;50.016;20.002;2024-01-25T02:45:58;98535.95;;;6.62;99.25
34921;BME280;21128;50.016;20.002;2024-01-25T02:48:25;98536.40;;;6.60;98.92
34921;BME280;21128;50.016;20.002;2024-01-25T02:50:52;98528.68;;;6.61;98.28
34921;BME280;21128;50.016;20.002;2024-01-25T02:53:18;98535.59;;;6.64;98.04
34921;BME280;21128;50.016;20.002;2024-01-25T02:55:45;98532.02;;;6.68;97.68
34921;BME280;21128;50.016;20.002;2024-01-25T02:58:12;98525.27;;;6.69;97.35
34921;BME280;21128;50.016;20.002;2024-01-25T03:00:38;98531.84;;;6.71;97.32
34921;BME280;21128;50.016;20.002;2024-01-25T03:03:05;98536.66;;;6.72;97.04
34921;BME280;21128;50.016;20.002;2024-01-25T03:05:32;98538.16;;;6.75;96.55
34921;BME280;21128;50.016;20.002;2024-01-25T03:07:59;98538.80;;;6.78;96.25
34921;BME280;21128;50.016;20.002;2024-01-25T03:10:26;98544.77;;;6.80;96.25
34921;BME280;21128;50.016;20.002;2024-01-25T03:12:53;98546.12;;;6.80;95.36
34921;BME280;21128;50.016;20.002;2024-01-25T03:15:19;98544.12;;;6.81;95.35
34921;BME280;21128;50.016;20.002;2024-01-25T03:17:46;98547.14;;;6.83;95.06
34921;BME280;21128;50.016;20.002;2024-01-25T03:20:13;98547.65;;;6.83;94.87
34921;BME280;21128;50.016;20.002;2024-01-25T03:22:40;98546.33;;;6.84;94.05
34921;BME280;21128;50.016;20.002;2024-01-25T03:25:07;98548.02;;;6.85;94.54
34921;BME280;21128;50.016;20.002;2024-01-25T03:27:35;98550.45;;;6.85;93.67
34921;BME280;21128;50.016;20.002;2024-01-25T03:30:02;98552.46;;;6.86;93.49
34921;BME280;21128;50.016;20.002;2024-01-25T03:32:29;98552.66;;;6.85;93.36
34921;BME280;21128;50.016;20.002;2024-01-25T03:34:56;98540.10;;;6.85;92.89
34921;BME280;21128;50.016;20.002;2024-01-25T03:37:22;98535.50;;;6.84;92.79
34921;BME280;21128;50.016;20.002;2024-01-25T03:39:49;98546.41;;;6.85;93.10
34921;BME280;21128;50.016;20.002;2024-01-25T03:42:16;98545.99;;;6.84;93.54
34921;BME280;21128;50.016;20.002;2024-01-25T03:44:42;98551.25;;;6.81;93.37
34921;BME280;21128;50.016;20.002;2024-01-25T03:47:11;98547.38;;;6.80;93.40
34921;BME280;21128;50.016;20.002;2024-01-25T03:49:38;98575.36;;;6.80;92.69
34921;BME280;21128;50.016;20.002;2024-01-25T03:52:05;98590.33;;;6.80;93.41
34921;BME280;21128;50.016;20.002;2024-01-25T03:54:32;98590.17;;;6.76;93.70
34921;BME280;21128;50.016;20.002;2024-01-25T03:56:59;98596.91;;;6.70;94.70
34921;BME280;21128;50.016;20.002;2024-01-25T03:59:26;98581.52;;;6.58;95.97
34921;BME280;21128;50.016;20.002;2024-01-25T04:01:53;98606.20;;;6.41;97.37
34921;BME280;21128;50.016;20.002;2024-01-25T04:04:19;98591.39;;;6.21;98.93
34921;BME280;21128;50.016;20.002;2024-01-25T04:06:46;98602.08;;;5.98;100.00
34921;BME280;21128;50.016;20.002;2024-01-25T04:09:14;98587.23;;;5.74;100.00
34921;BME280;21128;50.016;20.002;2024-01-25T04:11:42;98597.51;;;5.53;100.00
34921;BME280;21128;50.016;20.002;2024-01-25T04:14:09;98596.23;;;5.36;100.00
34921;BME280;21128;50.016;20.002;2024-01-25T04:16:35;98581.63;;;5.20;100.00
34921;BME280;21128;50.016;20.002;2024-01-25T04:19:02;98585.55;;;5.07;100.00
34921;BME280;21128;50.016;20.002;2024-01-25T04:21:29;98588.45;;;5.00;100.00
34921;BME280;21128;50.016;20.002;2024-01-25T04:23:55;98579.30;;;5.00;100.00
34921;BME280;21128;50.016;20.002;2024-01-25T04:26:23;98582.63;;;5.06;100.00
34921;BME280;21128;50.016;20.002;2024-01-25T04:28:50;98568.21;;;5.13;100.00
34921;BME280;21128;50.016;20.002;2024-01-25T04:31:16;98570.60;;;5.23;100.00
34921;BME280;21128;50.016;20.002;2024-01-25T04:33:43;98567.35;;;5.31;100.00
34921;BME280;21128;50.016;20.002;2024-01-25T04:36:10;98565.49;;;5.38;100.00
34921;BME280;21128;50.016;20.002;2024-01-25T04:38:37;98567.66;;;5.42;100.00
34921;BME280;21128;50.016;20.002;2024-01-25T04:41:04;98568.14;;;5.47;100.00
34921;BME280;21128;50.016;20.002;2024-01-25T04:43:35;98555.98;;;5.53;100.00
34921;BME280;21128;50.016;20.002;2024-01-25T04:46:03;98558.11;;;5.62;100.00
34921;BME280;21128;50.016;20.002;2024-01-25T04:48:30;98574.71;;;5.72;100.00
34921;BME280;21128;50.016;20.002;2024-01-25T04:50:57;98563.97;;;5.85;100.00
34921;BME280;21128;50.016;20.002;2024-01-25T04:53:27;98566.81;;;5.96;99.42
34921;BME280;21128;50.016;20.002;2024-01-25T04:55:54;98566.55;;;6.06;98.98
34921;BME280;21128;50.016;20.002;2024-01-25T04:58:21;98568.39;;;6.13;99.20
34921;BME280;21128;50.016;20.002;2024-01-25T05:00:48;98566.81;;;6.17;98.82
34921;BME280;21128;50.016;20.002;2024-01-25T05:03:16;98559.69;;;6.20;97.96
34921;BME280;21128;50.016;20.002;2024-01-25T05:05:44;98563.26;;;6.23;97.65
34921;BME280;21128;50.016;20.002;2024-01-25T05:08:10;98568.98;;;6.25;97.46
34921;BME280;21128;50.016;20.002;2024-01-25T05:10:37;98569.59;;;6.26;97.18
34921;BME280;21128;50.016;20.002;2024-01-25T05:13:04;98563.52;;;6.28;96.74
34921;BME280;21128;50.016;20.002;2024-01-25T05:15:31;98562.95;;;6.31;96.54
34921;BME280;21128;50.016;20.002;2024-01-25T05:17:57;98564.15;;;6.34;95.84
34921;BME280;21128;50.016;20.002;2024-01-25T05:20:24;98573.42;;;6.35;96.38
34921;BME280;21128;50.016;20.002;2024-01-25T05:22:59;98580.02;;;6.35;96.05
34921;BME280;21128;50.016;20.002;2024-01-25T05:25:26;98578.06;;;6.36;95.92
34921;BME280;21128;50.016;20.002;2024-01-25T05:27:54;98580.89;;;6.35;96.03
34921;BME280;21128;50.016;20.002;2024-01-25T05:30:22;98578.63;;;6.33;96.39
34921;BME280;21128;50.016;20.002;2024-01-25T05:32:49;98571.39;;;6.30;96.62
34921;BME280;21128;50.016;20.002;2024-01-25T05:35:17;98579.59;;;6.26;96.65
34921;BME280;21128;50.016;20.002;2024-01-25T05:37:43;98572.69;;;6.23;96.93
34921;BME280;21128;50.016;20.002;2024-01-25T05:40:10;98590.14;;;6.19;97.54
34921;BME280;21128;50.016;20.002;2024-01-25T05:42:38;98582.02;;;6.17;97.54
34921;BME280;21128;50.016;20.002;2024-01-25T05:45:06;98580.53;;;6.16;98.05
34921;BME280;21128;50.016;20.002;2024-01-25T05:47:33;98577.66;;;6.12;98.13
34921;BME280;21128;50.016;20.002;2024-01-25T05:50:01;98579.41;;;6.10;98.48
34921;BME280;21128;50.016;20.002;2024-01-25T05:52:29;98573.70;;;6.08;98.54
34921;BME280;21128;50.016;20.002;2024-01-25T05:54:56;98572.27;;;6.06;98.28
34921;BME280;21128;50.016;20.002;2024-01-25T05:57:22;98571.46;;;6.05;98.14
34921;BME280;21128;50.016;20.002;2024-01-25T05:59:49;98575.73;;;6.06;98.39
34921;BME280;21128;50.016;20.002;2024-01-25T06:02:16;98573.83;;;6.08;98.33
34921;BME280;21128;50.016;20.002;2024-01-25T06:04:43;98576.25;;;6.10;98.52
34921;BME280;21128;50.016;20.002;2024-01-25T06:07:10;98575.68;;;6.11;98.15
34921;BME280;21128;50.016;20.002;2024-01-25T06:09:37;98576.27;;;6.12;97.74
34921;BME280;21128;50.016;20.002;2024-01-25T06:12:04;98592.66;;;6.12;97.98
34921;BME280;21128;50.016;20.002;2024-01-25T06:14:31;98585.02;;;6.10;98.98
34921;BME280;21128;50.016;20.002;2024-01-25T06:16:58;98584.27;;;6.03;99.40
34921;BME280;21128;50.016;20.002;2024-01-25T06:19:24;98570.86;;;5.97;99.77
34921;BME280;21128;50.016;20.002;2024-01-25T06:21:51;98572.66;;;5.91;99.85
34921;BME280;21128;50.016;20.002;2024-01-25T06:24:18;98564.30;;;5.90;99.99
34921;BME280;21128;50.016;20.002;2024-01-25T06:26:44;98583.74;;;5.87;100.00
34921;BME280;21128;50.016;20.002;2024-01-25T06:29:11;98589.44;;;5.86;100.00
34921;BME280;21128;50.016;20.002;2024-01-25T06:31:44;98592.31;;;5.84;100.00
34921;BME280;21128;50.016;20.002;2024-01-25T06:34:12;98591.53;;;5.81;100.00
34921;BME280;21128;50.016;20.002;2024-01-25T06:36:39;98593.12;;;5.76;100.00
34921;BME280;21128;50.016;20.002;2024-01-25T06:39:05;98586.64;;;5.73;100.00
34921;BME280;21128;50.016;20.002;2024-01-25T06:41:33;98590.09;;;5.71;100.00
34921;BME280;21128;50.016;20.002;2024-01-25T06:44:00;98583.98;;;5.66;100.00
34921;BME280;21128;50.016;20.002;2024-01-25T06:46:26;98587.27;;;5.62;100.00
34921;BME280;21128;50.016;20.002;2024-01-25T06:48:54;98586.94;;;5.59;100.00
34921;BME280;21128;50.016;20.002;2024-01-25T06:51:20;98593.05;;;5.57;100.00
34921;BME280;21128;50.016;20.002;2024-01-25T06:53:47;98592.67;;;5.53;100.00
34921;BME280;21128;50.016;20.002;2024-01-25T06:56:14;98607.07;;;5.49;100.00
34921;BME280;21128;50.016;20.002;2024-01-25T06:58:40;98608.92;;;5.45;100.00
34921;BME280;21128;50.016;20.002;2024-01-25T07:01:07;98604.15;;;5.39;100.00
34921;BME280;21128;50.016;20.002;2024-01-25T07:03:34;98606.36;;;5.32;100.00
34921;BME280;21128;50.016;20.002;2024-01-25T07:06:00;98615.50;;;5.24;100.00
34921;BME280;21128;50.016;20.002;2024-01-25T07:08:27;98605.35;;;5.16;100.00
34921;BME280;21128;50.016;20.002;2024-01-25T07:10:54;98605.17;;;5.09;100.00
34921;BME280;21128;50.016;20.002;2024-01-25T07:13:22;98599.92;;;5.02;100.00
34921;BME280;21128;50.016;20.002;2024-01-25T07:15:49;98595.55;;;4.98;100.00
34921;BME280;21128;50.016;20.002;2024-01-25T07:18:15;98596.29;;;4.93;100.00
34921;BME280;21128;50.016;20.002;2024-01-25T07:20:42;98588.62;;;4.89;100.00
34921;BME280;21128;50.016;20.002;2024-01-25T07:23:09;98589.95;;;4.87;100.00
34921;BME280;21128;50.016;20.002;2024-01-25T07:25:36;98593.63;;;4.87;100.00
34921;BME280;21128;50.016;20.002;2024-01-25T07:28:02;98584.94;;;4.87;100.00
34921;BME280;21128;50.016;20.002;2024-01-25T07:30:29;98583.42;;;4.86;100.00
34921;BME280;21128;50.016;20.002;2024-01-25T07:32:56;98584.15;;;4.88;100.00
34921;BME280;21128;50.016;20.002;2024-01-25T07:35:23;98583.80;;;4.90;100.00
34921;BME280;21128;50.016;20.002;2024-01-25T07:37:50;98590.55;;;4.93;100.00
34921;BME280;21128;50.016;20.002;2024-01-25T07:40:17;98585.48;;;4.96;100.00
34921;BME280;21128;50.016;20.002;2024-01-25T07:42:43;98589.15;;;4.98;100.00
34921;BME280;21128;50.016;20.002;2024-01-25T07:45:10;98590.11;;;5.01;100.00
34921;BME280;21128;50.016;20.002;2024-01-25T07:47:42;98579.23;;;5.05;100.00
34921;BME280;21128;50.016;20.002;2024-01-25T07:50:10;98589.60;;;5.08;100.00
34921;BME280;21128;50.016;20.002;2024-01-25T07:52:37;98599.30;;;5.11;100.00
34921;BME280;21128;50.016;20.002;2024-01-25T07:55:04;98602.83;;;5.13;100.00
34921;BME280;21128;50.016;20.002;2024-01-25T07:57:31;98612.69;;;5.13;100.00
34921;BME280;21128;50.016;20.002;2024-01-25T07:59:58;98620.73;;;5.12;100.00
34921;BME280;21128;50.016;20.002;2024-01-25T08:02:24;98626.54;;;5.11;100.00
34921;BME280;21128;50.016;20.002;2024-01-25T08:04:51;98635.17;;;5.09;100.00
34921;BME280;21128;50.016;20.002;2024-01-25T08:07:18;98637.17;;;5.08;100.00
34921;BME280;21128;50.016;20.002;2024-01-25T08:09:44;98635.66;;;5.05;100.00
34921;BME280;21128;50.016;20.002;2024-01-25T08:12:11;98644.69;;;5.03;100.00
34921;BME280;21128;50.016;20.002;2024-01-25T08:14:38;98649.20;;;4.98;100.00
34921;BME280;21128;50.016;20.002;2024-01-25T08:17:04;98653.50;;;4.94;100.00
34921;BME280;21128;50.016;20.002;2024-01-25T08:19:32;98648.40;;;4.88;100.00
34921;BME280;21128;50.016;20.002;2024-01-25T08:21:59;98639.14;;;4.84;100.00
34921;BME280;21128;50.016;20.002;2024-01-25T08:24:25;98636.34;;;4.79;100.00
34921;BME280;21128;50.016;20.002;2024-01-25T08:26:52;98643.59;;;4.75;100.00
34921;BME280;21128;50.016;20.002;2024-01-25T08:29:19;98638.50;;;4.71;100.00
34921;BME280;21128;50.016;20.002;2024-01-25T08:31:46;98639.31;;;4.67;100.00
34921;BME280;21128;50.016;20.002;2024-01-25T08:34:12;98650.57;;;4.65;100.00
34921;BME280;21128;50.016;20.002;2024-01-25T08:36:39;98651.14;;;4.61;100.00
34921;BME280;21128;50.016;20.002;2024-01-25T08:39:06;98635.23;;;4.58;100.00
34921;BME280;21128;50.016;20.002;2024-01-25T08:41:35;98638.00;;;4.56;100.00
34921;BME280;21128;50.016;20.002;2024-01-25T08:44:02;98635.59;;;4.56;100.00
34921;BME280;21128;50.016;20.002;2024-01-25T08:46:29;98635.33;;;4.55;100.00
34921;BME280;21128;50.016;20.002;2024-01-25T08:48:56;98634.55;;;4.56;100.00
34921;BME280;21128;50.016;20.002;2024-01-25T08:51:23;98638.84;;;4.54;100.00
34921;BME280;21128;50.016;20.002;2024-01-25T08:53:49;98643.78;;;4.53;100.00
34921;BME280;21128;50.016;20.002;2024-01-25T08:56:17;98644.35;;;4.52;100.00
34921;BME280;21128;50.016;20.002;2024-01-25T08:58:45;98641.27;;;4.51;100.00
34921;BME280;21128;50.016;20.002;2024-01-25T09:01:14;98638.98;;;4.52;100.00
34921;BME280;21128;50.016;20.002;2024-01-25T09:03:40;98646.33;;;4.54;100.00
34921;BME280;21128;50.016;20.002;2024-01-25T09:06:08;98644.00;;;4.55;100.00
34921;BME280;21128;50.016;20.002;2024-01-25T09:08:35;98633.86;;;4.58;100.00
34921;BME280;21128;50.016;20.002;2024-01-25T09:11:03;98632.50;;;4.63;100.00
34921;BME280;21128;50.016;20.002;2024-01-25T09:13:30;98626.16;;;4.69;100.00
34921;BME280;21128;50.016;20.002;2024-01-25T09:15:56;98630.62;;;4.74;100.00
34921;BME280;21128;50.016;20.002;2024-01-25T09:18:23;98635.11;;;4.79;100.00
34921;BME280;21128;50.016;20.002;2024-01-25T09:20:50;98640.44;;;4.83;100.00
34921;BME280;21128;50.016;20.002;2024-01-25T09:23:17;98639.33;;;4.86;100.00
34921;BME280;21128;50.016;20.002;2024-01-25T09:25:45;98635.34;;;4.89;100.00
34921;BME280;21128;50.016;20.002;2024-01-25T09:28:12;98643.25;;;4.92;100.00
34921;BME280;21128;50.016;20.002;2024-01-25T09:30:39;98634.06;;;4.96;100.00
34921;BME280;21128;50.016;20.002;2024-01-25T09:33:06;98638.04;;;4.99;100.00
34921;BME280;21128;50.016;20.002;2024-01-25T09:35:33;98636.89;;;5.02;100.00
34921;BME280;21128;50.016;20.002;2024-01-25T09:38:00;98635.42;;;5.06;100.00
34921;BME280;21128;50.016;20.002;2024-01-25T09:40:27;98619.02;;;5.09;100.00
34921;BME280;21128;50.016;20.002;2024-01-25T09:42:54;98629.08;;;5.12;100.00
34921;BME280;21128;50.016;20.002;2024-01-25T09:45:21;98634.94;;;5.13;100.00
34921;BME280;21128;50.016;20.002;2024-01-25T09:47:50;98644.98;;;5.13;100.00
34921;BME280;21128;50.016;20.002;2024-01-25T09:50:17;98646.82;;;5.14;100.00
34921;BME280;21128;50.016;20.002;2024-01-25T09:52:44;98647.11;;;5.15;100.00
34921;BME280;21128;50.016;20.002;2024-01-25T09:55:12;98639.30;;;5.17;100.00
34921;BME280;21128;50.016;20.002;2024-01-25T09:57:45;98636.02;;;5.19;100.00
34921;BME280;21128;50.016;20.002;2024-01-25T10:00:16;98636.16;;;5.22;100.00
34921;BME280;21128;50.016;20.002;2024-01-25T10:02:43;98639.52;;;5.26;100.00
34921;BME280;21128;50.016;20.002;2024-01-25T10:05:11;98639.20;;;5.28;100.00
34921;BME280;21128;50.016;20.002;2024-01-25T10:07:42;98642.40;;;5.29;100.00
34921;BME280;21128;50.016;20.002;2024-01-25T10:10:10;98643.48;;;5.31;100.00
34921;BME280;21128;50.016;20.002;2024-01-25T10:12:39;98652.86;;;5.33;100.00
34921;BME280;21128;50.016;20.002;2024-01-25T10:15:07;98654.08;;;5.38;100.00
34921;BME280;21128;50.016;20.002;2024-01-25T10:17:34;98661.20;;;5.41;100.00
34921;BME280;21128;50.016;20.002;2024-01-25T10:20:04;98650.80;;;5.42;100.00
34921;BME280;21128;50.016;20.002;2024-01-25T10:22:34;98638.11;;;5.45;100.00
34921;BME280;21128;50.016;20.002;2024-01-25T10:25:00;98647.88;;;5.46;100.00
34921;BME280;21128;50.016;20.002;2024-01-25T10:27:28;98656.89;;;5.47;100.00
34921;BME280;21128;50.016;20.002;2024-01-25T10:29:55;98656.02;;;5.47;100.00
34921;BME280;21128;50.016;20.002;2024-01-25T10:32:22;98658.01;;;5.48;100.00
34921;BME280;21128;50.016;20.002;2024-01-25T10:34:50;98656.88;;;5.50;100.00
34921;BME280;21128;50.016;20.002;2024-01-25T10:37:18;98654.21;;;5.50;100.00
34921;BME280;21128;50.016;20.002;2024-01-25T10:39:46;98660.75;;;5.51;100.00
34921;BME280;21128;50.016;20.002;2024-01-25T10:42:14;98658.86;;;5.51;100.00
34921;BME280;21128;50.016;20.002;2024-01-25T10:44:41;98660.09;;;5.50;100.00
34921;BME280;21128;50.016;20.002;2024-01-25T10:47:09;98665.73;;;5.50;100.00
34921;BME280;21128;50.016;20.002;2024-01-25T10:49:36;98669.52;;;5.50;100.00
34921;BME280;21128;50.016;20.002;2024-01-25T10:52:05;98658.90;;;5.52;100.00
34921;BME280;21128;50.016;20.002;2024-01-25T10:54:33;98660.61;;;5.57;100.00
34921;BME280;21128;50.016;20.002;2024-01-25T10:57:00;98663.80;;;5.61;100.00
34921;BME280;21128;50.016;20.002;2024-01-25T10:59:28;98658.58;;;5.63;100.00
34921;BME280;21128;50.016;20.002;2024-01-25T11:01:54;98663.26;;;5.68;100.00
34921;BME280;21128;50.016;20.002;2024-01-25T11:04:21;98665.73;;;5.73;100.00
34921;BME280;21128;50.016;20.002;2024-01-25T11:06:49;98669.55;;;5.77;100.00
34921;BME280;21128;50.016;20.002;2024-01-25T11:09:20;98671.28;;;5.79;100.00
34921;BME280;21128;50.016;20.002;2024-01-25T11:11:48;98664.73;;;5.81;100.00
34921;BME280;21128;50.016;20.002;2024-01-25T11:14:16;98667.73;;;5.81;100.00
34921;BME280;21128;50.016;20.002;2024-01-25T11:16:43;98662.23;;;5.77;100.00
34921;BME280;21128;50.016;20.002;2024-01-25T11:19:19;98663.68;;;5.74;100.00
34921;BME280;21128;50.016;20.002;2024-01-25T11:21:47;98669.29;;;5.71;100.00
34921;BME280;21128;50.016;20.002;2024-01-25T11:24:16;98664.85;;;5.68;100.00
34921;BME280;21128;50.016;20.002;2024-01-25T11:26:43;98655.36;;;5.67;100.00
34921;BME280;21128;50.016;20.002;2024-01-25T11:29:15;98640.13;;;5.71;100.00
34921;BME280;21128;50.016;20.002;2024-01-25T11:31:46;98648.92;;;5.76;100.00
34921;BME280;21128;50.016;20.002;2024-01-25T11:34:14;98660.59;;;5.81;100.00
34921;BME280;21128;50.016;20.002;2024-01-25T11:36:45;98651.48;;;5.86;100.00
34921;BME280;21128;50.016;20.002;2024-01-25T11:39:13;98662.34;;;5.92;100.00
34921;BME280;21128;50.016;20.002;2024-01-25T11:41:43;98657.86;;;5.99;100.00
34921;BME280;21128;50.016;20.002;2024-01-25T11:44:11;98670.86;;;6.03;100.00
34921;BME280;21128;50.016;20.002;2024-01-25T11:46:38;98668.06;;;6.08;100.00
34921;BME280;21128;50.016;20.002;2024-01-25T11:49:05;98676.38;;;6.13;100.00
34921;BME280;21128;50.016;20.002;2024-01-25T11:51:33;98686.88;;;6.17;100.00
34921;BME280;21128;50.016;20.002;2024-01-25T11:54:00;98681.42;;;6.18;100.00
34921;BME280;21128;50.016;20.002;2024-01-25T11:56:30;98683.15;;;6.18;100.00
34921;BME280;21128;50.016;20.002;2024-01-25T11:58:58;98685.00;;;6.16;100.00
34921;BME280;21128;50.016;20.002;2024-01-25T12:01:25;98688.37;;;6.16;100.00
34921;BME280;21128;50.016;20.002;2024-01-25T12:03:53;98690.30;;;6.16;100.00
34921;BME280;21128;50.016;20.002;2024-01-25T12:06:20;98699.90;;;6.15;100.00
34921;BME280;21128;50.016;20.002;2024-01-25T12:08:47;98711.39;;;6.13;100.00
34921;BME280;21128;50.016;20.002;2024-01-25T12:11:18;98708.10;;;6.08;100.00
34921;BME280;21128;50.016;20.002;2024-01-25T12:13:45;98711.84;;;6.04;100.00
34921;BME280;21128;50.016;20.002;2024-01-25T12:16:13;98705.14;;;6.01;100.00
34921;BME280;21128;50.016;20.002;2024-01-25T12:18:41;98716.84;;;6.01;100.00
34921;BME280;21128;50.016;20.002;2024-01-25T12:21:09;98712.14;;;6.01;100.00
34921;BME280;21128;50.016;20.002;2024-01-25T12:23:40;98719.96;;;6.01;100.00
34921;BME280;21128;50.016;20.002;2024-01-25T12:26:08;98710.17;;;5.99;100.00
34921;BME280;21128;50.016;20.002;2024-01-25T12:28:36;98717.84;;;5.97;100.00
34921;BME280;21128;50.016;20.002;2024-01-25T12:31:04;98721.63;;;5.95;100.00
34921;BME280;21128;50.016;20.002;2024-01-25T12:33:33;98720.47;;;5.91;100.00
34921;BME280;21128;50.016;20.002;2024-01-25T12:36:04;98713.41;;;5.88;100.00
34921;BME280;21128;50.016;20.002;2024-01-25T12:38:31;98718.92;;;5.84;100.00
34921;BME280;21128;50.016;20.002;2024-01-25T12:41:00;98717.08;;;5.81;100.00
34921;BME280;21128;50.016;20.002;2024-01-25T12:43:29;98720.58;;;5.78;100.00
34921;BME280;21128;50.016;20.002;2024-01-25T12:45:56;98717.36;;;5.77;100.00
34921;BME280;21128;50.016;20.002;2024-01-25T12:48:23;98714.75;;;5.77;100.00
34921;BME280;21128;50.016;20.002;2024-01-25T12:50:49;98716.66;;;5.77;100.00
34921;BME280;21128;50.016;20.002;2024-01-25T12:53:16;98715.13;;;5.76;100.00
34921;BME280;21128;50.016;20.002;2024-01-25T12:55:43;98723.83;;;5.76;100.00